Time;durP1;ratioP1;P1;durP2;ratioP2;P2;SDS_P1;SDS_P2;PMS_P1;PMS_P2;Temp;Humidity;BMP_temperature;BMP_pressure;BME280_temperature;BME280_humidity;BME280_pressure;Samples;Min_cycle;Max_cycle;Signal;HPM_P1;HPM_P2
2021/06/05 00:00:21;;;;;;;17.25;8.23;;;17.80;95.70;;;;;;5100126;28;20102;-76
2021/06/05 00:02:47;;;;;;;14.05;7.60;;;17.90;95.90;;;;;;5097655;28;20043;-75
2021/06/05 00:05:13;;;;;;;15.23;8.30;;;17.70;96.50;;;;;;5100750;28;20130;-77
2021/06/05 00:07:39;;;;;;;14.55;8.45;;;17.70;97.00;;;;;;5101223;28;20471;-76
2021/06/05 00:10:09;;;;;;;15.68;8.52;;;17.70;97.40;;;;;;5096685;28;20027;-75
2021/06/05 00:12:36;;;;;;;24.27;8.27;;;17.70;98.00;;;;;;5082341;28;20398;-79
2021/06/05 00:15:08;;;;;;;17.08;9.18;;;17.60;98.40;;;;;;5091406;28;20032;-77
2021/06/05 00:17:34;;;;;;;18.90;9.48;;;17.50;99.00;;;;;;5091695;28;20446;-77
2021/06/05 00:20:00;;;;;;;18.27;9.70;;;17.50;99.50;;;;;;5091717;28;20468;-76
2021/06/05 00:22:25;;;;;;;17.13;10.32;;;17.50;99.80;;;;;;5090956;28;20017;-78
2021/06/05 00:24:51;;;;;;;13.45;7.22;;;17.50;99.90;;;;;;5091623;28;20507;-79
2021/06/05 00:27:17;;;;;;;14.07;7.80;;;17.60;99.90;;;;;;5091194;28;20028;-78
2021/06/05 00:29:42;;;;;;;14.73;7.25;;;17.50;99.90;;;;;;5091697;28;20081;-76
2021/06/05 00:32:08;;;;;;;16.17;7.15;;;17.40;99.90;;;;;;5090758;28;20028;-77
2021/06/05 00:34:34;;;;;;;15.30;7.60;;;17.30;99.90;;;;;;5091773;28;20797;-76
2021/06/05 00:37:00;;;;;;;15.45;7.32;;;17.30;99.90;;;;;;5091453;28;20236;-78
2021/06/05 00:39:25;;;;;;;10.18;7.03;;;17.30;99.90;;;;;;5091757;28;20039;-79
2021/06/05 00:41:51;;;;;;;17.73;7.00;;;17.20;99.90;;;;;;5069683;28;20027;-77
2021/06/05 00:44:17;;;;;;;11.07;6.68;;;17.20;99.90;;;;;;5091435;28;20028;-79
2021/06/05 00:46:43;;;;;;;10.77;7.00;;;17.20;99.90;;;;;;5090888;28;20085;-80
2021/06/05 00:49:09;;;;;;;14.57;7.55;;;17.30;99.90;;;;;;5091417;28;20063;-79
2021/06/05 00:51:40;;;;;;;13.05;6.38;;;17.30;99.90;;;;;;5090972;28;20407;-78
2021/06/05 00:54:07;;;;;;;;;;;17.30;99.90;;;;;;5103501;28;20421;-76
2021/06/05 00:56:33;;;;;;;13.80;6.65;;;17.20;99.90;;;;;;5118328;28;20359;-78
2021/06/05 00:58:58;;;;;;;14.27;6.75;;;17.10;99.90;;;;;;5118175;28;20026;-78
2021/06/05 01:01:28;;;;;;;12.88;6.47;;;17.00;99.90;;;;;;5117980;28;20031;-75
2021/06/05 01:03:54;;;;;;;10.15;7.30;;;17.00;99.90;;;;;;5119023;28;20467;-79
2021/06/05 01:06:28;;;;;;;12.40;6.70;;;16.90;99.90;;;;;;5099277;28;20027;-77
2021/06/05 01:09:09;;;;;;;13.15;6.30;;;17.10;99.90;;;;;;5118292;28;20023;-79
2021/06/05 01:11:53;;;;;;;12.40;6.97;;;17.10;99.90;;;;;;5118038;28;20054;-75
2021/06/05 01:14:25;;;;;;;10.48;6.90;;;17.10;99.90;;;;;;5102971;28;20024;-76
2021/06/05 01:16:55;;;;;;;12.93;7.10;;;16.90;99.90;;;;;;5097526;28;20090;-76
2021/06/05 01:19:40;;;;;;;10.70;6.47;;;17.00;99.90;;;;;;5097561;28;20016;-80
2021/06/05 01:22:24;;;;;;;15.15;7.18;;;17.10;99.90;;;;;;5097502;28;20016;-79
2021/06/05 01:25:20;;;;;;;12.35;6.93;;;17.00;99.90;;;;;;5097414;28;20703;-78
2021/06/05 01:27:54;;;;;;;13.60;7.20;;;17.10;99.90;;;;;;5097061;28;20020;-74
2021/06/05 01:30:36;;;;;;;11.45;7.13;;;17.00;99.90;;;;;;5097946;28;20052;-78
2021/06/05 01:33:02;;;;;;;19.90;9.20;;;17.00;99.90;;;;;;5097469;28;20028;-78
2021/06/05 01:35:31;;;;;;;14.38;7.88;;;16.90;99.90;;;;;;5079659;28;20057;-78
2021/06/05 01:37:58;;;;;;;13.55;7.78;;;16.90;99.90;;;;;;5097747;28;20065;-77
2021/06/05 01:40:27;;;;;;;17.65;8.30;;;16.90;99.90;;;;;;5097405;28;20047;-77
2021/06/05 01:42:54;;;;;;;14.63;8.05;;;16.80;99.90;;;;;;5097332;28;20032;-76
2021/06/05 01:45:25;;;;;;;14.45;6.97;;;16.70;99.90;;;;;;5079433;28;20024;-76
2021/06/05 01:47:53;;;;;;;14.93;7.60;;;16.70;99.90;;;;;;5097060;28;20151;-78
2021/06/05 01:50:22;;;;;;;16.92;8.20;;;16.60;99.90;;;;;;5079601;28;20479;-77
2021/06/05 01:52:49;;;;;;;14.25;7.18;;;16.70;99.90;;;;;;5097560;28;20028;-75
2021/06/05 01:55:20;;;;;;;12.73;6.60;;;16.60;99.90;;;;;;5097538;28;20115;-76
2021/06/05 01:58:34;;;;;;;12.77;7.32;;;16.30;99.90;;;;;;5097274;28;20421;-79
2021/06/05 02:01:02;;;;;;;11.23;7.57;;;16.30;99.90;;;;;;5035054;28;20044;-75
2021/06/05 02:03:28;;;;;;;17.40;8.23;;;16.20;99.90;;;;;;5034363;28;20167;-80
2021/06/05 02:05:54;;;;;;;14.80;6.88;;;16.20;99.90;;;;;;5031201;28;20127;-76
2021/06/05 02:08:23;;;;;;;13.25;7.35;;;16.30;99.90;;;;;;5031936;28;20037;-78
2021/06/05 02:10:54;;;;;;;13.25;8.10;;;16.30;99.90;;;;;;5031555;28;20671;-82
2021/06/05 02:13:27;;;;;;;18.73;7.43;;;16.40;99.90;;;;;;5031633;28;20044;-77
2021/06/05 02:15:59;;;;;;;13.55;6.88;;;16.40;99.90;;;;;;5031778;28;20116;-79
2021/06/05 02:18:28;;;;;;;10.50;6.80;;;16.40;99.90;;;;;;5031440;28;20053;-77
2021/06/05 02:21:03;;;;;;;12.95;6.68;;;16.40;99.90;;;;;;5030457;28;20432;-74
2021/06/05 02:23:53;;;;;;;12.30;6.28;;;16.40;99.90;;;;;;5011497;28;20057;-78
2021/06/05 02:26:22;;;;;;;9.20;6.10;;;16.20;99.90;;;;;;5011410;28;20038;-75
2021/06/05 02:28:51;;;;;;;12.57;6.40;;;16.00;99.90;;;;;;5011221;28;20034;-79
2021/06/05 02:31:18;;;;;;;18.83;6.57;;;15.90;99.90;;;;;;5025052;28;20682;-79
2021/06/05 02:33:45;;;;;;;9.40;6.13;;;16.00;99.90;;;;;;5053891;28;20033;-79
2021/06/05 02:36:12;;;;;;;10.30;6.07;;;16.00;99.90;;;;;;5053321;28;20159;-78
2021/06/05 02:38:41;;;;;;;11.93;6.22;;;15.90;99.90;;;;;;5052041;28;20029;-75
2021/06/05 02:41:10;;;;;;;13.98;6.60;;;15.80;99.90;;;;;;5052167;28;20017;-76
2021/06/05 02:43:37;;;;;;;13.88;5.97;;;16.00;99.90;;;;;;5053035;28;20029;-79
2021/06/05 02:46:09;;;;;;;11.88;7.25;;;15.80;99.90;;;;;;5053379;28;20639;-77
2021/06/05 02:49:18;;;;;;;15.00;6.85;;;15.80;99.90;;;;;;5053281;28;20045;-75
2021/06/05 02:51:50;;;;;;;11.93;6.30;;;15.80;99.90;;;;;;5010885;28;20113;-79
2021/06/05 02:54:17;;;;;;;12.98;6.63;;;15.80;99.90;;;;;;5048562;28;20037;-75
2021/06/05 02:56:43;;;;;;;12.05;6.45;;;15.40;99.90;;;;;;5053010;28;20077;-76
2021/06/05 02:59:08;;;;;;;10.80;6.55;;;15.30;99.90;;;;;;5052842;28;20021;-74
2021/06/05 03:01:35;;;;;;;9.18;6.50;;;15.20;99.90;;;;;;5052864;28;20034;-75
2021/06/05 03:04:01;;;;;;;12.85;6.78;;;15.50;99.90;;;;;;5052562;28;20682;-76
2021/06/05 03:06:28;;;;;;;14.63;6.47;;;15.40;99.90;;;;;;5051817;28;20128;-74
2021/06/05 03:08:54;;;;;;;11.38;6.40;;;15.50;99.90;;;;;;5051200;28;20108;-75
2021/06/05 03:11:22;;;;;;;14.07;6.85;;;15.50;99.90;;;;;;5052567;28;20111;-73
2021/06/05 03:13:48;;;;;;;10.30;6.85;;;15.50;99.90;;;;;;5059835;28;20020;-77
2021/06/05 03:16:15;;;;;;;13.20;7.10;;;15.50;99.90;;;;;;5071351;28;20056;-75
2021/06/05 03:18:42;;;;;;;14.02;7.63;;;15.50;99.90;;;;;;5071181;28;20036;-76
2021/06/05 03:21:12;;;;;;;9.18;6.07;;;15.40;99.90;;;;;;5072568;28;20021;-77
2021/06/05 03:23:38;;;;;;;11.23;7.18;;;15.50;99.90;;;;;;5078437;28;20050;-74
2021/06/05 03:26:05;;;;;;;12.38;6.07;;;15.50;99.90;;;;;;5092766;28;20024;-75
2021/06/05 03:28:33;;;;;;;10.38;6.88;;;15.50;99.90;;;;;;5092428;28;20107;-75
2021/06/05 03:30:58;;;;;;;13.63;7.15;;;15.60;99.90;;;;;;5074255;28;20606;-76
2021/06/05 03:33:24;;;;;;;8.82;6.45;;;15.60;99.90;;;;;;5092664;28;20039;-76
2021/06/05 03:35:52;;;;;;;14.38;6.03;;;15.60;99.90;;;;;;5074714;28;20089;-74
2021/06/05 03:38:19;;;;;;;9.18;6.43;;;15.70;99.90;;;;;;5092003;28;20097;-76
2021/06/05 03:40:45;;;;;;;10.48;6.07;;;15.70;99.90;;;;;;5092750;28;20056;-80
2021/06/05 03:43:11;;;;;;;14.98;6.75;;;15.70;99.90;;;;;;5074009;28;20066;-77
2021/06/05 03:45:37;;;;;;;10.57;6.25;;;15.70;99.90;;;;;;5092331;28;20055;-77
2021/06/05 03:48:04;;;;;;;9.55;5.90;;;15.80;99.90;;;;;;5092278;28;20035;-75
2021/06/05 03:50:34;;;;;;;10.80;5.70;;;15.90;99.90;;;;;;5092548;28;20090;-75
2021/06/05 03:53:00;;;;;;;13.07;6.32;;;16.00;99.90;;;;;;5092102;28;20027;-75
2021/06/05 03:55:26;;;;;;;9.43;6.28;;;16.00;99.90;;;;;;5092196;28;20036;-79
2021/06/05 03:57:52;;;;;;;9.98;5.63;;;16.10;99.90;;;;;;5092316;28;20055;-76
2021/06/05 04:00:25;;;;;;;9.93;6.35;;;16.20;99.90;;;;;;5073823;28;20024;-73
2021/06/05 04:02:51;;;;;;;14.00;6.60;;;16.10;99.90;;;;;;5073483;28;20024;-76
2021/06/05 04:05:18;;;;;;;11.50;6.30;;;16.00;99.90;;;;;;5091909;28;20092;-75
2021/06/05 04:07:44;;;;;;;12.43;5.95;;;16.00;99.90;;;;;;5073105;28;20042;-79
2021/06/05 04:10:12;;;;;;;9.20;6.05;;;16.00;99.90;;;;;;5092091;28;20110;-77
2021/06/05 04:12:38;;;;;;;14.23;6.65;;;16.00;99.90;;;;;;5091807;28;20115;-75
2021/06/05 04:15:07;;;;;;;10.02;5.90;;;16.00;99.90;;;;;;5091654;28;20099;-77
2021/06/05 04:17:33;;;;;;;15.60;7.30;;;16.00;99.90;;;;;;5091921;28;20034;-76
2021/06/05 04:19:58;;;;;;;14.35;6.47;;;16.10;99.90;;;;;;5091711;28;20020;-74
2021/06/05 04:22:24;;;;;;;11.13;6.72;;;16.10;99.90;;;;;;5090952;28;20031;-75
2021/06/05 04:24:50;;;;;;;12.50;6.43;;;16.10;99.90;;;;;;5091496;28;20048;-75
2021/06/05 04:27:16;;;;;;;10.88;6.65;;;16.10;99.90;;;;;;5091125;28;20016;-75
2021/06/05 04:29:42;;;;;;;11.25;7.20;;;16.30;99.90;;;;;;5091624;28;20031;-74
2021/06/05 04:32:08;;;;;;;15.35;9.32;;;16.40;99.90;;;;;;5091132;28;20063;-79
2021/06/05 04:34:34;;;;;;;14.13;9.52;;;16.20;99.90;;;;;;5091587;28;20021;-80
2021/06/05 04:37:00;;;;;;;20.83;10.25;;;16.30;99.90;;;;;;5073004;28;20028;-79
2021/06/05 04:39:26;;;;;;;14.43;9.32;;;16.20;99.90;;;;;;5091253;28;20384;-75
2021/06/05 04:41:52;;;;;;;16.90;8.82;;;16.30;99.90;;;;;;5091168;28;20471;-75
2021/06/05 04:44:18;;;;;;;15.30;8.32;;;16.50;99.90;;;;;;5091634;28;20027;-77
2021/06/05 04:46:46;;;;;;;16.15;8.63;;;16.40;99.90;;;;;;5091243;28;20024;-75
2021/06/05 04:49:13;;;;;;;14.25;7.53;;;16.50;99.90;;;;;;5092002;28;20153;-76
2021/06/05 04:51:40;;;;;;;13.93;8.38;;;16.60;99.90;;;;;;5072823;28;20032;-75
2021/06/05 04:54:07;;;;;;;15.73;8.50;;;16.70;99.90;;;;;;5091210;28;20012;-74
2021/06/05 04:56:39;;;;;;;18.90;8.65;;;16.60;99.90;;;;;;5091343;28;20059;-74
2021/06/05 04:59:06;;;;;;;16.10;8.25;;;16.70;99.90;;;;;;5091578;28;20020;-76
2021/06/05 05:01:33;;;;;;;15.85;8.60;;;16.60;99.90;;;;;;5072724;28;20455;-76
2021/06/05 05:03:59;;;;;;;16.80;8.57;;;16.70;99.90;;;;;;5073523;28;20020;-75
2021/06/05 05:06:25;;;;;;;15.05;8.60;;;16.70;99.90;;;;;;5091170;28;20024;-78
2021/06/05 05:08:51;;;;;;;10.45;7.70;;;16.80;99.90;;;;;;5090896;28;20020;-80
2021/06/05 05:11:17;;;;;;;14.73;7.43;;;16.70;99.90;;;;;;5091152;28;20457;-76
2021/06/05 05:13:43;;;;;;;16.25;7.78;;;16.70;99.90;;;;;;5091499;28;20619;-76
2021/06/05 05:16:09;;;;;;;12.75;7.60;;;16.90;99.90;;;;;;5091124;28;20024;-76
2021/06/05 05:18:36;;;;;;;14.93;8.00;;;17.10;99.90;;;;;;5091857;28;20039;-76
2021/06/05 05:21:03;;;;;;;14.15;7.60;;;17.10;99.90;;;;;;5072298;28;20547;-74
2021/06/05 05:23:29;;;;;;;15.60;6.85;;;17.20;99.90;;;;;;5091132;28;20513;-78
2021/06/05 05:25:58;;;;;;;9.25;6.30;;;17.30;99.90;;;;;;5090968;28;20020;-76
2021/06/05 05:28:24;;;;;;;11.25;6.55;;;17.40;99.90;;;;;;5091315;28;20035;-78
2021/06/05 05:30:53;;;;;;;9.07;6.00;;;17.30;99.90;;;;;;5090456;28;20034;-77
2021/06/05 05:33:21;;;;;;;13.55;7.18;;;17.40;99.90;;;;;;5073095;28;20051;-79
2021/06/05 05:35:48;;;;;;;11.40;6.78;;;17.50;99.90;;;;;;5072749;28;20116;-76
2021/06/05 05:38:15;;;;;;;10.65;6.15;;;17.20;99.90;;;;;;5090851;28;20024;-78
2021/06/05 05:40:42;;;;;;;8.57;6.03;;;17.40;99.90;;;;;;5075616;28;20081;-76
2021/06/05 05:43:08;;;;;;;10.63;6.50;;;17.40;99.90;;;;;;5076894;28;20107;-78
2021/06/05 05:45:34;;;;;;;9.70;5.82;;;17.50;99.90;;;;;;5094899;28;20020;-77
2021/06/05 05:48:03;;;;;;;9.00;5.93;;;17.70;99.90;;;;;;5094862;28;20439;-75
2021/06/05 05:50:31;;;;;;;10.32;6.63;;;17.70;99.90;;;;;;5094623;28;20387;-76
2021/06/05 05:52:58;;;;;;;9.98;5.85;;;17.50;99.90;;;;;;5094509;28;20402;-79
2021/06/05 05:55:23;;;;;;;8.55;5.93;;;17.70;99.90;;;;;;5076741;28;20609;-80
2021/06/05 05:57:49;;;;;;;13.63;6.50;;;17.80;99.90;;;;;;5094286;28;20472;-79
2021/06/05 06:00:23;;;;;;;11.27;5.55;;;18.00;99.90;;;;;;5094256;28;20032;-79
2021/06/05 06:02:49;;;;;;;15.38;6.05;;;18.10;99.90;;;;;;5076393;28;20087;-81
2021/06/05 06:05:15;;;;;;;10.63;6.18;;;18.20;99.90;;;;;;5076164;28;20070;-81
2021/06/05 06:07:41;;;;;;;12.43;6.35;;;18.20;99.90;;;;;;5075813;28;20028;-81
2021/06/05 06:10:10;;;;;;;14.82;6.40;;;18.30;99.90;;;;;;5094252;28;20084;-79
2021/06/05 06:12:37;;;;;;;10.57;5.80;;;18.20;99.90;;;;;;5094081;28;20085;-80
2021/06/05 06:15:10;;;;;;;9.43;6.22;;;18.30;99.90;;;;;;5075750;28;20076;-78
2021/06/05 06:17:37;;;;;;;10.93;5.97;;;18.30;99.90;;;;;;5093851;28;20344;-79
2021/06/05 06:20:05;;;;;;;11.10;5.63;;;18.30;99.90;;;;;;5094050;28;20020;-78
2021/06/05 06:22:31;;;;;;;11.30;5.95;;;18.40;99.90;;;;;;5075857;28;20050;-77
2021/06/05 06:24:57;;;;;;;10.40;5.80;;;18.40;99.90;;;;;;5093868;28;20044;-76
2021/06/05 06:27:23;;;;;;;16.80;6.45;;;18.60;99.90;;;;;;5093748;28;20020;-79
2021/06/05 06:29:49;;;;;;;12.30;6.82;;;18.50;99.90;;;;;;5093507;28;20035;-77
2021/06/05 06:32:14;;;;;;;11.95;5.68;;;18.70;99.90;;;;;;5104551;28;20040;-78
2021/06/05 06:34:40;;;;;;;11.52;6.25;;;18.80;99.90;;;;;;5096174;28;20119;-74
2021/06/05 06:37:07;;;;;;;11.15;6.95;;;18.80;99.90;;;;;;5113430;28;20034;-81
2021/06/05 06:39:33;;;;;;;34.15;21.10;;;18.80;99.90;;;;;;5114105;28;20386;-78
2021/06/05 06:41:59;;;;;;;23.02;15.32;;;19.00;99.90;;;;;;5114067;28;20486;-80
2021/06/05 06:44:26;;;;;;;30.90;17.02;;;19.00;99.90;;;;;;5114274;28;20035;-82
2021/06/05 06:46:54;;;;;;;18.20;6.90;;;19.20;99.90;;;;;;5108457;28;20016;-76
2021/06/05 06:49:22;;;;;;;11.32;5.43;;;19.10;99.90;;;;;;5093659;28;20111;-80
2021/06/05 06:51:48;;;;;;;10.80;6.18;;;18.90;99.90;;;;;;5092725;28;20467;-75
2021/06/05 06:54:14;;;;;;;27.73;17.83;;;19.00;99.90;;;;;;5093562;28;20035;-78
2021/06/05 06:56:42;;;;;;;21.38;10.30;;;18.90;99.90;;;;;;5092797;28;20024;-77
2021/06/05 06:59:08;;;;;;;17.70;9.45;;;19.10;99.90;;;;;;5093112;28;20418;-75
2021/06/05 07:01:35;;;;;;;37.95;22.67;;;19.10;99.90;;;;;;5074576;28;20024;-78
2021/06/05 07:04:01;;;;;;;86.03;48.90;;;19.30;99.90;;;;;;5093811;28;20024;-77
2021/06/05 07:06:27;;;;;;;52.40;31.95;;;19.50;99.90;;;;;;5092783;28;20032;-79
2021/06/05 07:08:54;;;;;;;39.97;24.05;;;19.70;99.60;;;;;;5092705;28;20415;-81
2021/06/05 07:11:32;;;;;;;16.45;10.07;;;19.50;99.50;;;;;;5100886;28;20147;-82
2021/06/05 07:14:00;;;;;;;14.65;7.40;;;19.40;99.60;;;;;;5083092;28;20016;-83
2021/06/05 07:16:26;;;;;;;14.00;8.13;;;19.50;99.50;;;;;;5096970;28;20123;-83
2021/06/05 07:18:52;;;;;;;14.20;7.97;;;19.60;99.30;;;;;;5106145;28;20024;-81
2021/06/05 07:21:19;;;;;;;11.13;6.90;;;19.70;98.80;;;;;;5087382;28;20038;-85
2021/06/05 07:23:45;;;;;;;11.80;7.43;;;19.80;98.40;;;;;;5103287;28;20043;-80
2021/06/05 07:26:15;;;;;;;12.73;6.70;;;19.90;98.50;;;;;;5097992;28;20028;-75
2021/06/05 07:28:45;;;;;;;14.23;6.95;;;20.00;98.50;;;;;;5098115;28;20024;-77
2021/06/05 07:31:15;;;;;;;10.88;5.97;;;20.10;97.90;;;;;;5106250;28;20043;-77
2021/06/05 07:33:43;;;;;;;8.55;5.68;;;20.20;97.70;;;;;;5101096;28;20408;-77
2021/06/05 07:36:15;;;;;;;9.30;5.53;;;20.20;97.40;;;;;;5092205;28;20023;-75
2021/06/05 07:38:40;;;;;;;13.75;7.90;;;20.30;97.10;;;;;;5082833;28;20055;-77
2021/06/05 07:41:06;;;;;;;14.73;6.97;;;20.50;97.10;;;;;;5084751;28;20436;-77
2021/06/05 07:43:33;;;;;;;12.20;5.78;;;20.50;96.80;;;;;;5090432;28;20016;-77
2021/06/05 07:46:00;;;;;;;10.60;5.32;;;20.60;96.30;;;;;;5071196;28;20073;-81
2021/06/05 07:48:28;;;;;;;11.63;5.38;;;20.60;96.30;;;;;;5065047;28;20067;-77
2021/06/05 07:50:54;;;;;;;10.77;6.03;;;20.60;95.80;;;;;;5081527;28;20445;-78
2021/06/05 07:53:20;;;;;;;11.05;5.20;;;20.50;95.90;;;;;;5081692;28;20078;-76
2021/06/05 07:55:46;;;;;;;10.52;4.50;;;20.70;95.60;;;;;;5068858;28;20020;-78
2021/06/05 07:58:12;;;;;;;14.85;5.20;;;20.80;94.40;;;;;;5069566;28;20494;-80
2021/06/05 08:00:38;;;;;;;8.88;4.95;;;20.90;93.90;;;;;;5070330;28;20075;-76
2021/06/05 08:03:07;;;;;;;9.60;4.88;;;20.70;94.00;;;;;;5070254;28;20036;-78
2021/06/05 08:05:34;;;;;;;13.68;4.82;;;20.80;93.40;;;;;;5051533;28;20112;-75
2021/06/05 08:08:04;;;;;;;8.43;5.68;;;20.90;93.40;;;;;;5054985;28;20047;-77
2021/06/05 08:10:30;;;;;;;;;;;21.00;93.50;;;;;;5070844;28;20028;-76
2021/06/05 08:12:56;;;;;;;8.18;4.07;;;21.10;93.20;;;;;;5073733;28;19915;-76
2021/06/05 08:15:30;;;;;;;12.40;5.25;;;21.00;93.10;;;;;;5071614;28;20033;-75
2021/06/05 08:17:57;;;;;;;12.52;4.05;;;21.10;93.80;;;;;;5089984;28;20028;-76
2021/06/05 08:20:28;;;;;;;10.32;5.15;;;21.30;93.70;;;;;;5055588;28;20056;-79
2021/06/05 08:22:56;;;;;;;7.47;4.78;;;21.40;92.80;;;;;;5089147;28;20028;-77
2021/06/05 08:25:22;;;;;;;10.95;4.28;;;21.50;92.70;;;;;;5085735;28;20699;-74
2021/06/05 08:27:48;;;;;;;6.13;3.67;;;21.50;92.80;;;;;;5091652;28;20025;-79
2021/06/05 08:30:19;;;;;;;8.68;4.50;;;21.50;92.70;;;;;;5069911;28;20024;-79
2021/06/05 08:32:45;;;;;;;8.27;3.80;;;21.40;92.90;;;;;;5052450;28;20135;-77
2021/06/05 08:35:13;;;;;;;7.78;4.28;;;21.50;92.90;;;;;;5070802;28;20107;-77
2021/06/05 08:37:39;;;;;;;7.43;3.83;;;21.70;92.60;;;;;;5071108;28;20395;-76
2021/06/05 08:40:12;;;;;;;11.48;4.05;;;21.90;91.80;;;;;;5068866;28;20467;-77
2021/06/05 08:42:48;;;;;;;8.02;3.63;;;22.00;91.00;;;;;;5090391;28;20024;-76
2021/06/05 08:45:24;;;;;;;11.60;3.70;;;21.80;90.50;;;;;;5090684;28;20390;-78
2021/06/05 08:47:50;;;;;;;6.85;3.50;;;21.90;90.10;;;;;;5090863;28;20024;-75
2021/06/05 08:50:23;;;;;;;7.00;3.85;;;22.00;90.30;;;;;;5090599;28;20024;-76
2021/06/05 08:53:00;;;;;;;6.47;3.53;;;22.10;89.00;;;;;;5070326;28;20036;-76
2021/06/05 08:55:34;;;;;;;5.90;3.30;;;22.30;87.60;;;;;;5075419;28;20012;-77
2021/06/05 08:58:28;;;;;;;7.32;3.83;;;22.30;87.40;;;;;;5072309;28;20107;-78
2021/06/05 09:01:01;;;;;;;17.05;9.00;;;22.40;87.90;;;;;;5089557;28;20012;-79
2021/06/05 09:03:30;;;;;;;21.40;15.15;;;22.50;88.60;;;;;;5088899;28;20032;-79
2021/06/05 09:06:08;;;;;;;10.25;5.50;;;22.30;87.30;;;;;;5072587;28;20031;-76
2021/06/05 09:08:34;;;;;;;16.77;12.73;;;22.50;88.90;;;;;;5083615;28;20020;-79
2021/06/05 09:11:02;;;;;;;15.77;9.23;;;23.00;87.20;;;;;;5079175;28;20517;-77
2021/06/05 09:13:29;;;;;;;10.65;6.35;;;23.30;86.70;;;;;;5091704;28;20031;-81
2021/06/05 09:16:19;;;;;;;20.25;12.15;;;23.50;84.00;;;;;;5091886;28;20031;-78
2021/06/05 09:19:00;;;;;;;83.93;55.95;;;23.30;83.50;;;;;;5076747;28;20115;-76
2021/06/05 09:21:35;;;;;;;20.05;13.52;;;23.50;83.20;;;;;;5095332;28;20024;-94
2021/06/05 09:24:17;;;;;;;6.50;4.05;;;23.60;82.90;;;;;;5084615;28;20040;-81
2021/06/05 09:26:47;;;;;;;6.00;3.47;;;23.50;81.40;;;;;;5070644;28;20421;-78
2021/06/05 09:29:17;;;;;;;6.72;3.83;;;23.60;80.70;;;;;;5111043;28;20016;-79
2021/06/05 09:32:10;;;;;;;6.72;3.10;;;24.10;80.40;;;;;;5116719;28;20100;-82
2021/06/05 09:34:40;;;;;;;10.50;3.60;;;23.90;78.90;;;;;;5075020;28;20024;-79
2021/06/05 09:37:28;;;;;;;5.45;3.30;;;24.00;77.80;;;;;;5073759;28;20060;-78
2021/06/05 09:40:24;;;;;;;6.63;2.78;;;24.30;76.90;;;;;;5052560;28;20133;-86
2021/06/05 09:42:55;;;;;;;5.20;3.22;;;24.00;75.70;;;;;;5073416;28;20021;-76
2021/06/05 09:45:33;;;;;;;6.70;3.28;;;23.80;75.20;;;;;;5074059;28;20455;-77
2021/06/05 09:48:28;;;;;;;6.75;3.60;;;24.30;73.90;;;;;;5074897;28;20016;-76
2021/06/05 09:50:57;;;;;;;6.75;3.05;;;24.10;73.70;;;;;;5053026;28;20047;-75
2021/06/05 09:53:33;;;;;;;9.52;2.95;;;24.50;73.40;;;;;;5077289;28;20084;-76
2021/06/05 09:56:20;;;;;;;5.15;2.83;;;24.80;71.90;;;;;;5093830;28;20107;-82
2021/06/05 09:58:47;;;;;;;4.22;2.60;;;24.70;69.90;;;;;;5076371;28;20020;-75
2021/06/05 10:01:19;;;;;;;6.30;3.20;;;24.60;70.10;;;;;;5091726;28;20020;-82
2021/06/05 10:03:46;;;;;;;6.85;2.97;;;24.70;70.10;;;;;;5092246;28;20103;-76
2021/06/05 10:06:34;;;;;;;6.15;3.10;;;24.70;68.90;;;;;;5097472;28;20024;-82
2021/06/05 10:09:20;;;;;;;7.32;3.17;;;24.70;69.40;;;;;;5083114;28;20052;-75
2021/06/05 10:11:49;;;;;;;12.25;2.97;;;24.70;67.40;;;;;;5072942;28;20040;-75
2021/06/05 10:14:19;;;;;;;5.60;3.08;;;25.00;68.80;;;;;;5071244;28;20029;-76
2021/06/05 10:17:01;;;;;;;4.43;2.83;;;25.40;68.40;;;;;;5058280;28;20024;-77
2021/06/05 10:19:43;;;;;;;6.15;3.10;;;25.30;67.50;;;;;;5053501;28;20437;-75
2021/06/05 10:22:12;;;;;;;6.18;3.28;;;25.30;68.50;;;;;;5072485;28;20039;-76
2021/06/05 10:24:42;;;;;;;5.18;3.20;;;25.70;67.70;;;;;;5072350;28;20048;-81
2021/06/05 10:27:10;;;;;;;;;;;25.80;66.50;;;;;;5090505;28;20024;-77
2021/06/05 10:29:46;;;;;;;5.45;2.95;;;26.10;67.00;;;;;;5092894;28;20313;-81
2021/06/05 10:32:20;;;;;;;5.25;3.15;;;26.00;66.30;;;;;;5087227;28;20391;-76
2021/06/05 10:35:11;;;;;;;6.30;3.10;;;25.90;66.80;;;;;;5062837;28;20710;-89
2021/06/05 10:37:40;;;;;;;8.30;3.40;;;26.30;65.10;;;;;;5054238;28;20040;-81
2021/06/05 10:40:29;;;;;;;4.88;3.30;;;26.40;65.00;;;;;;5070556;28;20086;-81
2021/06/05 10:42:55;;;;;;;6.60;4.38;;;26.00;64.50;;;;;;5055236;28;20119;-81
2021/06/05 10:45:37;;;;;;;6.72;4.00;;;25.90;65.80;;;;;;5074174;28;20116;-87
2021/06/05 10:48:08;;;;;;;5.95;3.53;;;26.00;64.80;;;;;;5075635;28;20017;-85
2021/06/05 10:50:40;;;;;;;6.97;3.58;;;26.30;63.30;;;;;;5070783;28;20036;-81
2021/06/05 10:53:18;;;;;;;18.58;3.80;;;26.10;64.50;;;;;;5072502;28;20047;-81
2021/06/05 10:55:50;;;;;;;7.10;4.00;;;26.30;63.90;;;;;;5056588;28;20081;-84
2021/06/05 10:58:19;;;;;;;7.70;3.28;;;26.00;64.20;;;;;;5056736;28;20082;-84
2021/06/05 11:00:52;;;;;;;7.28;3.53;;;26.30;63.80;;;;;;5072639;28;20503;-80
2021/06/05 11:03:26;;;;;;;6.45;3.58;;;26.60;64.10;;;;;;5073366;28;20035;-78
2021/06/05 11:06:04;;;;;;;6.80;3.45;;;26.20;62.80;;;;;;5078204;28;20106;-78
2021/06/05 11:08:38;;;;;;;7.38;3.40;;;26.40;63.70;;;;;;5099568;28;20020;-82
2021/06/05 11:11:07;;;;;;;7.18;3.60;;;26.90;63.60;;;;;;5098915;28;20081;-86
2021/06/05 11:13:36;;;;;;;4.47;2.88;;;26.80;61.50;;;;;;5098433;28;20031;-79
2021/06/05 11:16:04;;;;;;;9.10;4.10;;;27.20;62.20;;;;;;5080865;28;20037;-79
2021/06/05 11:18:29;;;;;;;4.78;3.40;;;27.10;61.30;;;;;;5105578;28;20028;-83
2021/06/05 11:20:56;;;;;;;7.78;3.80;;;27.00;61.90;;;;;;5112718;28;20028;-77
2021/06/05 11:23:24;;;;;;;6.97;3.63;;;27.20;62.50;;;;;;5083527;28;20427;-78
2021/06/05 11:26:01;;;;;;;5.93;3.58;;;27.40;61.80;;;;;;5069623;28;20021;-77
2021/06/05 11:28:39;;;;;;;5.90;3.83;;;27.60;60.70;;;;;;5070766;28;20068;-76
2021/06/05 11:31:38;;;;;;;17.10;3.50;;;27.70;60.20;;;;;;5071547;28;20056;-78
2021/06/05 11:34:05;;;;;;;6.95;3.38;;;28.00;59.50;;;;;;5053747;28;20032;-79
2021/06/05 11:36:36;;;;;;;7.40;3.50;;;27.90;59.50;;;;;;5069752;28;20533;-78
2021/06/05 11:39:12;;;;;;;5.78;3.85;;;28.10;59.70;;;;;;5075330;28;20600;-79
2021/06/05 11:41:55;;;;;;;35.50;5.03;;;28.40;59.20;;;;;;5079726;28;20060;-80
2021/06/05 11:44:38;;;;;;;6.80;3.83;;;28.30;55.00;;;;;;5091639;28;20081;-79
2021/06/05 11:47:16;;;;;;;86.55;55.30;;;27.90;56.90;;;;;;5074471;28;20020;-79
2021/06/05 11:50:00;;;;;;;25.95;16.13;;;28.20;56.60;;;;;;5070732;28;20494;-81
2021/06/05 11:52:50;;;;;;;19.83;13.93;;;28.40;56.60;;;;;;5073759;28;20475;-79
2021/06/05 11:55:34;;;;;;;72.67;48.83;;;28.40;56.10;;;;;;5071698;28;20527;-81
2021/06/05 11:58:14;;;;;;;33.63;29.65;;;28.10;56.30;;;;;;5071407;28;20133;-81
2021/06/05 12:00:44;;;;;;;;;;;28.50;55.40;;;;;;5070716;28;20028;-85
2021/06/05 12:03:24;;;;;;;10.20;7.88;;;28.80;55.20;;;;;;5076118;28;20004;-80
2021/06/05 12:05:50;;;;;;;45.47;35.47;;;29.00;55.60;;;;;;5091923;28;20063;-83
2021/06/05 12:08:32;;;;;;;115.85;88.85;;;28.90;55.20;;;;;;5088615;28;20028;-79
2021/06/05 12:11:01;;;;;;;47.38;39.45;;;28.90;54.70;;;;;;5072582;28;20483;-78
2021/06/05 12:13:33;;;;;;;19.17;13.52;;;29.00;54.70;;;;;;5051064;28;20032;-77
2021/06/05 12:16:29;;;;;;;14.95;11.68;;;29.00;54.70;;;;;;5081631;28;20475;-78
2021/06/05 12:18:55;;;;;;;14.13;9.68;;;28.80;55.70;;;;;;5070513;28;20170;-78
2021/06/05 12:21:29;;;;;;;8.93;6.68;;;28.90;54.70;;;;;;5072749;28;20111;-80
2021/06/05 12:23:55;;;;;;;8.63;4.57;;;28.40;55.50;;;;;;5063086;28;20048;-80
2021/06/05 12:26:38;;;;;;;6.40;3.78;;;28.60;53.80;;;;;;5069568;28;20031;-85
2021/06/05 12:29:14;;;;;;;6.78;4.80;;;28.80;55.30;;;;;;5061857;28;20028;-80
2021/06/05 12:31:45;;;;;;;6.50;4.32;;;29.10;55.00;;;;;;5073668;28;20513;-85
2021/06/05 12:34:25;;;;;;;8.40;4.57;;;29.30;54.60;;;;;;5091524;28;20079;-83
2021/06/05 12:36:57;;;;;;;9.45;4.97;;;29.40;55.00;;;;;;5088794;28;20027;-79
2021/06/05 12:39:45;;;;;;;8.10;4.32;;;29.70;55.00;;;;;;5060533;28;20113;-80
2021/06/05 12:42:24;;;;;;;9.60;4.07;;;29.60;55.20;;;;;;5069368;28;20024;-80
2021/06/05 12:44:53;;;;;;;9.70;5.25;;;29.50;55.00;;;;;;5071081;28;20063;-81
2021/06/05 12:47:24;;;;;;;8.70;4.13;;;28.90;54.70;;;;;;5069810;28;20040;-77
2021/06/05 12:49:50;;;;;;;7.18;3.30;;;28.60;54.80;;;;;;5067707;28;20024;-79
2021/06/05 12:52:27;;;;;;;6.95;3.90;;;28.80;53.80;;;;;;5071272;28;20388;-82
2021/06/05 12:55:12;;;;;;;5.97;3.60;;;29.00;53.60;;;;;;5056697;28;20434;-79
2021/06/05 12:57:42;;;;;;;11.13;3.85;;;28.50;54.90;;;;;;5070363;28;20024;-82